createdAt,value
2023-01-07T00:01:26.303Z,49.94
2023-01-07T00:03:54.106Z,49.73
2023-01-07T00:06:22.574Z,49.74
2023-01-07T00:08:50.794Z,49.58
2023-01-07T00:11:19.618Z,49.67
2023-01-07T00:13:48.998Z,49.71
2023-01-07T00:16:17.100Z,49.72
2023-01-07T00:18:44.822Z,49.54
2023-01-07T00:21:12.968Z,49.87
2023-01-07T00:23:41.195Z,49.78
2023-01-07T00:26:09.496Z,49.73
2023-01-07T00:28:37.693Z,49.73
2023-01-07T00:31:07.794Z,49.66
2023-01-07T00:33:36.060Z,49.72
2023-01-07T00:36:03.970Z,49.76
2023-01-07T00:38:31.734Z,49.70
2023-01-07T00:40:59.373Z,49.71
2023-01-07T00:43:26.995Z,49.71
2023-01-07T00:45:54.876Z,49.61
2023-01-07T00:48:24.062Z,49.71
2023-01-07T00:50:52.316Z,49.78
2023-01-07T00:53:20.026Z,49.70
2023-01-07T00:55:48.411Z,49.63
2023-01-07T00:58:16.347Z,49.65
2023-01-07T01:00:45.083Z,49.62
2023-01-07T01:03:12.814Z,49.63
2023-01-07T01:05:41.817Z,49.66
2023-01-07T01:08:10.199Z,49.62
2023-01-07T01:10:38.126Z,49.66
2023-01-07T01:13:05.739Z,49.69
2023-01-07T01:15:33.330Z,49.71
2023-01-07T01:18:01.020Z,49.66
2023-01-07T01:20:28.645Z,49.53
2023-01-07T01:22:57.655Z,49.61
2023-01-07T01:25:25.661Z,49.47
2023-01-07T01:27:53.345Z,49.64
2023-01-07T01:30:21.105Z,49.66
2023-01-07T01:32:49.699Z,49.64
2023-01-07T01:35:17.368Z,49.61
2023-01-07T01:37:45.121Z,49.61
2023-01-07T01:40:14.273Z,49.55
2023-01-07T01:42:41.965Z,49.54
2023-01-07T01:45:13.392Z,49.55
2023-01-07T01:47:43.718Z,49.51
2023-01-07T01:50:13.882Z,49.67
2023-01-07T01:52:43.235Z,49.61
2023-01-07T01:55:11.059Z,49.62
2023-01-07T01:57:40.037Z,49.61
2023-01-07T02:00:10.072Z,49.58
2023-01-07T02:02:41.266Z,49.59
2023-01-07T02:05:09.707Z,49.47
2023-01-07T02:07:37.286Z,49.55
2023-01-07T02:10:10.619Z,49.59
2023-01-07T02:12:43.023Z,49.61
2023-01-07T02:15:12.179Z,49.58
2023-01-07T02:17:53.672Z,49.43
2023-01-07T02:20:27.158Z,49.48
2023-01-07T02:23:15.425Z,49.56
2023-01-07T02:25:51.792Z,49.67
2023-01-07T02:28:27.130Z,49.57
2023-01-07T02:31:10.053Z,49.62
2023-01-07T02:33:40.964Z,49.64
2023-01-07T02:36:24.820Z,49.66
2023-01-07T02:38:58.135Z,49.57
2023-01-07T02:41:29.034Z,49.46
2023-01-07T02:43:59.427Z,49.52
2023-01-07T02:46:29.185Z,49.48
2023-01-07T02:49:00.669Z,49.57
2023-01-07T02:51:35.001Z,49.62
2023-01-07T02:54:03.010Z,49.51
2023-01-07T02:56:33.274Z,49.62
2023-01-07T02:59:18.991Z,49.56
2023-01-07T03:01:54.429Z,49.61
2023-01-07T03:04:42.873Z,49.62
2023-01-07T03:07:21.122Z,49.59
2023-01-07T03:09:51.432Z,49.52
2023-01-07T03:12:21.610Z,49.48
2023-01-07T03:14:50.416Z,49.48
2023-01-07T03:17:19.454Z,49.53
2023-01-07T03:19:47.553Z,49.42
2023-01-07T03:22:16.482Z,49.57
2023-01-07T03:24:46.347Z,49.50
2023-01-07T03:27:13.926Z,49.47
2023-01-07T03:29:41.566Z,49.60
2023-01-07T03:32:10.411Z,49.54
2023-01-07T03:34:38.489Z,49.48
2023-01-07T03:37:06.944Z,49.45
2023-01-07T03:39:35.078Z,49.51
2023-01-07T03:42:24.655Z,49.44
2023-01-07T03:44:52.576Z,49.47
2023-01-07T03:47:22.389Z,49.48
2023-01-07T03:49:50.067Z,49.48
2023-01-07T03:52:18.225Z,49.50
2023-01-07T03:54:45.851Z,49.54
2023-01-07T03:57:15.710Z,49.50
2023-01-07T03:59:43.397Z,49.62
2023-01-07T04:02:11.301Z,49.59
2023-01-07T04:04:39.120Z,49.58
2023-01-07T04:07:06.884Z,49.59
2023-01-07T04:09:34.477Z,49.64
2023-01-07T04:12:02.176Z,49.68
2023-01-07T04:14:31.698Z,49.76
2023-01-07T04:17:00.339Z,49.66
2023-01-07T04:19:28.167Z,49.78
2023-01-07T04:21:55.913Z,49.64
2023-01-07T04:24:23.602Z,49.75
2023-01-07T04:26:51.283Z,49.68
2023-01-07T04:29:20.947Z,49.62
2023-01-07T04:31:51.194Z,49.76
2023-01-07T04:34:19.341Z,49.82
2023-01-07T04:36:47.067Z,49.76
2023-01-07T04:39:14.925Z,49.72
2023-01-07T04:41:43.471Z,49.72
2023-01-07T04:44:11.473Z,49.70
2023-01-07T04:46:39.369Z,49.87
2023-01-07T04:49:08.726Z,49.71
2023-01-07T04:51:36.541Z,49.71
2023-01-07T04:54:05.422Z,49.73
2023-01-07T04:56:33.367Z,49.70
2023-01-07T04:59:01.653Z,49.73
2023-01-07T05:01:31.097Z,49.76
2023-01-07T05:03:59.341Z,49.73
2023-01-07T05:06:30.232Z,49.85
2023-01-07T05:08:58.125Z,49.71
2023-01-07T05:11:26.251Z,49.67
2023-01-07T05:13:56.520Z,49.77
2023-01-07T05:16:25.787Z,49.74
2023-01-07T05:18:54.714Z,49.83
2023-01-07T05:21:22.575Z,49.86
2023-01-07T05:23:51.954Z,49.78
2023-01-07T05:26:20.261Z,49.83
2023-01-07T05:28:49.841Z,49.67
2023-01-07T05:31:18.059Z,49.82
2023-01-07T05:33:45.815Z,49.85
2023-01-07T05:36:13.672Z,49.83
2023-01-07T05:38:41.552Z,49.81
2023-01-07T05:41:12.882Z,49.74
2023-01-07T05:43:40.469Z,49.76
2023-01-07T05:46:08.273Z,49.87
2023-01-07T05:48:36.151Z,49.79
2023-01-07T05:51:03.949Z,49.79
2023-01-07T05:53:31.576Z,49.86
2023-01-07T05:55:59.232Z,49.75
2023-01-07T05:58:28.272Z,49.82
2023-01-07T06:00:55.980Z,49.82
2023-01-07T06:03:23.725Z,49.87
2023-01-07T06:05:51.523Z,49.74
2023-01-07T06:08:19.195Z,49.88
2023-01-07T06:10:46.802Z,49.76
2023-01-07T06:13:14.455Z,49.81
2023-01-07T06:15:43.469Z,49.79
2023-01-07T06:18:11.108Z,49.79
2023-01-07T06:20:38.879Z,49.79
2023-01-07T06:23:06.530Z,49.82
2023-01-07T06:25:34.351Z,49.74
2023-01-07T06:28:01.982Z,49.85
2023-01-07T06:30:29.581Z,49.79
2023-01-07T06:32:58.590Z,49.83
2023-01-07T06:35:26.228Z,49.88
2023-01-07T06:37:53.958Z,50.03
2023-01-07T06:40:21.787Z,49.79
2023-01-07T06:42:49.519Z,49.82
2023-01-07T06:45:17.304Z,49.85
2023-01-07T06:47:45.548Z,49.86
2023-01-07T06:50:14.518Z,49.88
2023-01-07T06:52:42.252Z,49.85
2023-01-07T06:55:10.469Z,49.90
2023-01-07T06:57:38.195Z,49.75
2023-01-07T07:00:06.140Z,49.72
2023-01-07T07:02:33.828Z,49.69
2023-01-07T07:05:01.387Z,49.76
2023-01-07T07:07:30.411Z,49.91
2023-01-07T07:09:58.305Z,49.93
2023-01-07T07:12:26.062Z,49.83
2023-01-07T07:14:53.618Z,49.85
2023-01-07T07:17:21.232Z,49.94
2023-01-07T07:19:48.786Z,49.83
2023-01-07T07:22:16.609Z,49.92
2023-01-07T07:24:45.632Z,49.83
2023-01-07T07:27:13.459Z,49.89
2023-01-07T07:29:41.248Z,49.99
2023-01-07T07:32:08.828Z,49.86
2023-01-07T07:34:36.426Z,49.94
2023-01-07T07:37:03.992Z,49.81
2023-01-07T07:39:31.678Z,49.81
2023-01-07T07:42:01.347Z,49.95
2023-01-07T07:44:30.209Z,50.04
2023-01-07T07:46:57.930Z,49.73
2023-01-07T07:49:25.791Z,49.83
2023-01-07T07:51:53.613Z,49.83
2023-01-07T07:54:23.803Z,49.87
2023-01-07T07:56:51.589Z,49.76
2023-01-07T07:59:20.613Z,49.83
2023-01-07T08:01:48.294Z,49.83
2023-01-07T08:04:15.979Z,49.82
2023-01-07T08:06:43.762Z,49.84
2023-01-07T08:09:11.549Z,49.81
2023-01-07T08:11:39.192Z,49.85
2023-01-07T08:14:06.778Z,49.76
2023-01-07T08:16:35.890Z,49.85
2023-01-07T08:19:03.582Z,49.85
2023-01-07T08:21:31.201Z,49.89
2023-01-07T08:23:59.363Z,49.79
2023-01-07T08:26:27.094Z,49.91
2023-01-07T08:28:54.978Z,49.86
2023-01-07T08:31:22.873Z,49.90
2023-01-07T08:33:51.903Z,49.96
2023-01-07T08:36:23.130Z,50.02
2023-01-07T08:38:51.801Z,49.90
2023-01-07T08:41:19.531Z,49.98
2023-01-07T08:43:47.245Z,49.87
2023-01-07T08:46:14.828Z,49.87
2023-01-07T08:48:42.436Z,49.91
2023-01-07T08:51:11.475Z,49.97
2023-01-07T08:53:39.393Z,50.00
2023-01-07T08:56:07.274Z,50.02
2023-01-07T08:58:34.852Z,49.87
2023-01-07T09:01:03.476Z,49.90
2023-01-07T09:03:31.197Z,49.98
2023-01-07T09:05:58.840Z,49.94
2023-01-07T09:08:28.176Z,49.99
2023-01-07T09:10:56.126Z,50.04
2023-01-07T09:13:23.744Z,49.81
2023-01-07T09:15:52.663Z,49.92
2023-01-07T09:18:20.486Z,49.81
2023-01-07T09:20:48.059Z,49.96
2023-01-07T09:23:15.636Z,49.92
2023-01-07T09:25:44.627Z,49.87
2023-01-07T09:28:12.301Z,49.88
2023-01-07T09:30:39.929Z,49.88
2023-01-07T09:33:07.583Z,49.88
2023-01-07T09:35:35.414Z,49.90
2023-01-07T09:38:03.060Z,49.93
2023-01-07T09:40:31.739Z,49.97
2023-01-07T09:43:02.837Z,49.90
2023-01-07T09:45:30.979Z,49.90
2023-01-07T09:47:58.991Z,49.93
2023-01-07T09:50:29.582Z,49.91
2023-01-07T09:52:58.520Z,49.97
2023-01-07T09:55:27.402Z,50.02
2023-01-07T09:57:55.038Z,50.00
2023-01-07T10:00:24.659Z,49.94
2023-01-07T10:03:00.043Z,49.89
2023-01-07T10:05:32.777Z,49.93
2023-01-07T10:08:29.196Z,49.98
2023-01-07T10:10:50.583Z,49.84
2023-01-07T10:13:23.969Z,50.03
2023-01-07T10:15:58.499Z,49.96
2023-01-07T10:18:31.521Z,49.87
2023-01-07T10:21:00.760Z,49.90
2023-01-07T10:23:30.076Z,49.93
2023-01-07T10:25:57.963Z,49.82
2023-01-07T10:28:26.287Z,49.95
2023-01-07T10:30:54.089Z,50.09
2023-01-07T10:33:25.395Z,49.96
2023-01-07T10:35:57.207Z,50.06
2023-01-07T10:38:25.181Z,50.00
2023-01-07T10:40:53.345Z,49.97
2023-01-07T10:43:24.592Z,49.97
2023-01-07T10:46:01.517Z,50.10
2023-01-07T10:48:36.433Z,50.08
2023-01-07T10:51:09.335Z,50.08
2023-01-07T10:53:40.031Z,49.99
2023-01-07T10:56:10.220Z,50.02
2023-01-07T10:58:39.088Z,49.98
2023-01-07T11:01:07.266Z,50.07
2023-01-07T11:03:38.862Z,50.12
2023-01-07T11:06:07.602Z,50.00
2023-01-07T11:08:38.493Z,49.97
2023-01-07T11:11:06.384Z,49.96
2023-01-07T11:13:34.509Z,50.00
2023-01-07T11:16:07.758Z,50.05
2023-01-07T11:18:37.593Z,49.99
2023-01-07T11:21:05.400Z,49.87
2023-01-07T11:23:34.190Z,50.07
2023-01-07T11:26:11.893Z,50.05
2023-01-07T11:28:42.529Z,49.99
2023-01-07T11:31:10.568Z,50.07
2023-01-07T11:34:02.008Z,49.99
2023-01-07T11:36:39.882Z,50.00
2023-01-07T11:39:10.037Z,50.19
2023-01-07T11:41:37.904Z,50.11
2023-01-07T11:44:05.879Z,50.01
2023-01-07T11:46:33.632Z,50.11
2023-01-07T11:49:02.854Z,50.07
2023-01-07T11:51:39.446Z,49.98
2023-01-07T11:54:07.309Z,50.01
2023-01-07T11:56:35.140Z,50.02
2023-01-07T11:59:16.863Z,49.87
2023-01-07T12:01:45.252Z,50.02
2023-01-07T12:04:15.698Z,50.04
2023-01-07T12:06:44.066Z,50.00
2023-01-07T12:09:16.245Z,50.09
2023-01-07T12:11:44.616Z,50.13
2023-01-07T12:14:20.075Z,49.96
2023-01-07T12:16:47.936Z,50.06
2023-01-07T12:19:19.643Z,50.16
2023-01-07T12:21:53.061Z,50.07
2023-01-07T12:24:24.013Z,50.01
2023-01-07T12:26:53.339Z,50.06
2023-01-07T12:29:23.376Z,49.97
2023-01-07T12:31:57.031Z,50.25
2023-01-07T12:34:28.774Z,50.07
2023-01-07T12:37:00.632Z,50.05
2023-01-07T12:39:34.134Z,49.92
2023-01-07T12:42:03.492Z,50.07
2023-01-07T12:44:31.419Z,49.99
2023-01-07T12:47:30.809Z,50.15
2023-01-07T12:49:50.667Z,50.02
2023-01-07T12:52:18.952Z,50.13
2023-01-07T12:54:48.552Z,50.06
2023-01-07T12:57:17.096Z,50.19
2023-01-07T12:59:48.095Z,50.03
2023-01-07T13:02:18.824Z,50.21
2023-01-07T13:04:49.571Z,50.10
2023-01-07T13:07:19.917Z,50.15
2023-01-07T13:09:49.415Z,50.08
2023-01-07T13:12:42.540Z,50.17
2023-01-07T13:15:12.705Z,50.04
2023-01-07T13:17:41.397Z,50.13
2023-01-07T13:20:12.580Z,50.07
2023-01-07T13:22:43.529Z,50.09
2023-01-07T13:25:14.629Z,50.03
2023-01-07T13:27:49.892Z,50.11
2023-01-07T13:30:19.249Z,50.08
2023-01-07T13:32:53.259Z,50.10
2023-01-07T13:35:23.993Z,50.11
2023-01-07T13:38:10.334Z,50.13
2023-01-07T13:40:41.678Z,50.04
2023-01-07T13:43:10.688Z,50.13
2023-01-07T13:45:38.395Z,50.11
2023-01-07T13:48:08.195Z,50.21
2023-01-07T13:50:36.537Z,50.08
2023-01-07T13:53:05.234Z,50.10
2023-01-07T13:55:39.721Z,50.20
2023-01-07T13:58:26.556Z,50.07
2023-01-07T14:01:05.728Z,50.16
2023-01-07T14:03:51.668Z,50.09
2023-01-07T14:06:43.452Z,50.16
2023-01-07T14:09:16.048Z,50.12
2023-01-07T14:11:48.010Z,50.08
2023-01-07T14:14:17.256Z,50.10
2023-01-07T14:16:46.747Z,50.21
2023-01-07T14:19:15.328Z,50.20
2023-01-07T14:22:00.777Z,50.13
2023-01-07T14:24:47.214Z,49.96
2023-01-07T14:27:20.839Z,50.07
2023-01-07T14:29:48.493Z,50.14
2023-01-07T14:32:30.897Z,50.13
2023-01-07T14:34:59.871Z,50.03
2023-01-07T14:37:31.551Z,50.15
2023-01-07T14:39:59.366Z,50.21
2023-01-07T14:42:42.555Z,50.19
2023-01-07T14:45:28.824Z,50.17
2023-01-07T14:47:58.113Z,50.17
2023-01-07T14:50:29.380Z,50.16
2023-01-07T14:53:00.914Z,50.20
2023-01-07T14:55:46.492Z,50.13
2023-01-07T14:58:18.724Z,50.45
2023-01-07T15:00:55.213Z,50.23
2023-01-07T15:03:35.398Z,50.24
2023-01-07T15:06:13.612Z,50.18
2023-01-07T15:09:01.186Z,50.21
2023-01-07T15:11:46.501Z,50.16
2023-01-07T15:14:34.783Z,50.26
2023-01-07T15:17:02.586Z,50.26
2023-01-07T15:19:31.742Z,50.15
2023-01-07T15:22:01.556Z,50.25
2023-01-07T15:24:31.328Z,50.33
2023-01-07T15:26:59.968Z,50.28
2023-01-07T15:29:28.777Z,50.29
2023-01-07T15:31:58.796Z,50.19
2023-01-07T15:34:27.059Z,50.25
2023-01-07T15:36:56.398Z,50.19
2023-01-07T15:39:24.661Z,50.20
2023-01-07T15:41:52.459Z,50.09
2023-01-07T15:44:21.673Z,50.21
2023-01-07T15:46:49.374Z,50.15
2023-01-07T15:49:21.270Z,50.24
2023-01-07T15:51:49.114Z,50.15
2023-01-07T15:54:24.761Z,50.16
2023-01-07T15:56:53.992Z,50.18
2023-01-07T15:59:23.103Z,50.21
2023-01-07T16:01:50.823Z,50.16
2023-01-07T16:04:23.650Z,50.10
2023-01-07T16:06:51.320Z,50.20
2023-01-07T16:09:19.225Z,50.19
2023-01-07T16:11:48.353Z,50.21
2023-01-07T16:14:16.783Z,50.25
2023-01-07T16:16:44.349Z,50.22
2023-01-07T16:19:15.959Z,50.26
2023-01-07T16:21:44.398Z,50.23
2023-01-07T16:24:14.133Z,50.22
2023-01-07T16:26:42.235Z,50.29
2023-01-07T16:29:12.140Z,50.16
2023-01-07T16:31:39.752Z,50.27
2023-01-07T16:34:17.538Z,50.37
2023-01-07T16:36:45.423Z,50.24
2023-01-07T16:39:15.991Z,50.20
2023-01-07T16:41:43.743Z,50.31
2023-01-07T16:44:23.962Z,50.26
2023-01-07T16:47:05.442Z,50.26
2023-01-07T16:49:33.498Z,50.23
2023-01-07T16:52:05.781Z,50.19
2023-01-07T16:54:34.554Z,50.22
2023-01-07T16:57:02.383Z,50.22
2023-01-07T16:59:32.427Z,50.18
2023-01-07T17:02:01.225Z,50.33
2023-01-07T17:04:30.316Z,50.32
2023-01-07T17:06:58.826Z,50.20
2023-01-07T17:09:27.578Z,50.19
2023-01-07T17:11:55.284Z,50.26
2023-01-07T17:14:41.600Z,50.26
2023-01-07T17:17:19.607Z,50.35
2023-01-07T17:19:47.645Z,50.20
2023-01-07T17:22:28.718Z,50.11
2023-01-07T17:25:00.430Z,50.28
2023-01-07T17:27:28.845Z,50.23
2023-01-07T17:29:56.605Z,50.28
2023-01-07T17:32:25.855Z,50.28
2023-01-07T17:34:53.537Z,50.26
2023-01-07T17:37:21.362Z,50.28
2023-01-07T17:39:51.285Z,50.22
2023-01-07T17:42:48.436Z,50.28
2023-01-07T17:45:16.843Z,50.29
2023-01-07T17:47:46.349Z,50.19
2023-01-07T17:50:14.715Z,50.28
2023-01-07T17:52:42.905Z,50.15
2023-01-07T17:55:14.299Z,50.27
2023-01-07T17:57:42.702Z,50.29
2023-01-07T18:00:14.710Z,50.26
2023-01-07T18:02:42.461Z,50.31
2023-01-07T18:05:12.868Z,50.25
2023-01-07T18:07:40.671Z,50.25
2023-01-07T18:10:08.968Z,50.18
2023-01-07T18:12:35.870Z,50.24
2023-01-07T18:15:03.811Z,50.32
2023-01-07T18:17:31.727Z,50.33
2023-01-07T18:19:59.972Z,50.15
2023-01-07T18:22:29.286Z,50.29
2023-01-07T18:24:57.129Z,50.35
2023-01-07T18:27:24.808Z,50.28
2023-01-07T18:29:52.627Z,50.25
2023-01-07T18:32:20.404Z,50.26
2023-01-07T18:34:48.175Z,50.37
2023-01-07T18:37:17.869Z,50.23
2023-01-07T18:39:47.100Z,50.24
2023-01-07T18:42:14.979Z,50.28
2023-01-07T18:44:42.698Z,50.19
2023-01-07T18:47:10.282Z,50.27
2023-01-07T18:49:37.889Z,50.26
2023-01-07T18:52:05.563Z,50.22
2023-01-07T18:54:33.677Z,50.21
2023-01-07T18:57:03.657Z,50.22
2023-01-07T18:59:31.567Z,50.22
2023-01-07T19:02:00.669Z,50.15
2023-01-07T19:04:28.693Z,50.19
2023-01-07T19:06:56.398Z,50.20
2023-01-07T19:09:24.097Z,50.13
2023-01-07T19:11:51.815Z,50.23
2023-01-07T19:14:21.156Z,50.30
2023-01-07T19:16:48.833Z,50.29
2023-01-07T19:19:16.628Z,50.23
2023-01-07T19:21:46.544Z,50.25
2023-01-07T19:24:14.366Z,50.23
2023-01-07T19:26:42.847Z,50.24
2023-01-07T19:29:13.203Z,49.69
2023-01-07T19:31:45.636Z,48.76
2023-01-07T19:34:13.286Z,49.26
2023-01-07T19:36:41.770Z,49.47
2023-01-07T19:39:09.361Z,49.58
2023-01-07T19:41:36.983Z,49.56
2023-01-07T19:44:05.063Z,49.83
2023-01-07T19:46:34.654Z,49.67
2023-01-07T19:49:03.669Z,49.82
2023-01-07T19:51:31.296Z,49.90
2023-01-07T19:53:59.235Z,49.94
2023-01-07T19:56:26.904Z,49.83
2023-01-07T19:58:54.746Z,49.92
2023-01-07T20:01:24.395Z,49.98
2023-01-07T20:03:52.178Z,49.91
2023-01-07T20:06:21.807Z,49.93
2023-01-07T20:08:49.375Z,49.89
2023-01-07T20:11:17.765Z,49.93
2023-01-07T20:13:46.003Z,49.91
2023-01-07T20:16:13.990Z,49.89
2023-01-07T20:18:43.377Z,49.99
2023-01-07T20:21:10.996Z,49.89
2023-01-07T20:23:39.973Z,49.94
2023-01-07T20:26:09.873Z,49.96
2023-01-07T20:28:37.535Z,49.92
2023-01-07T20:31:05.982Z,49.87
2023-01-07T20:33:34.044Z,49.92
2023-01-07T20:36:01.828Z,49.93
2023-01-07T20:38:29.474Z,49.98
2023-01-07T20:40:58.648Z,50.05
2023-01-07T20:43:26.270Z,49.91
2023-01-07T20:45:54.016Z,49.92
2023-01-07T20:48:21.615Z,49.89
2023-01-07T20:50:49.256Z,49.92
2023-01-07T20:53:16.851Z,49.94
2023-01-07T20:55:44.739Z,49.97
2023-01-07T20:58:13.858Z,50.05
2023-01-07T21:00:41.933Z,49.91
2023-01-07T21:03:09.687Z,49.96
2023-01-07T21:05:38.460Z,49.90
2023-01-07T21:08:06.172Z,49.96
2023-01-07T21:10:33.844Z,49.93
2023-01-07T21:13:01.671Z,49.97
2023-01-07T21:15:30.703Z,49.98
2023-01-07T21:17:58.384Z,50.00
2023-01-07T21:20:26.033Z,50.01
2023-01-07T21:22:53.645Z,49.92
2023-01-07T21:25:21.249Z,49.91
2023-01-07T21:27:49.491Z,49.95
2023-01-07T21:30:18.434Z,49.90
2023-01-07T21:32:47.521Z,49.99
2023-01-07T21:35:15.516Z,49.99
2023-01-07T21:37:43.175Z,49.96
2023-01-07T21:40:10.973Z,49.90
2023-01-07T21:42:38.587Z,49.93
2023-01-07T21:45:06.792Z,49.90
2023-01-07T21:47:34.620Z,49.89
2023-01-07T21:50:03.582Z,49.95
2023-01-07T21:52:31.747Z,49.96
2023-01-07T21:54:59.442Z,50.03
2023-01-07T21:57:27.040Z,49.94
2023-01-07T21:59:54.607Z,49.88
2023-01-07T22:02:22.223Z,50.00
2023-01-07T22:04:50.332Z,49.92
2023-01-07T22:07:19.742Z,49.99
2023-01-07T22:09:47.480Z,49.73
2023-01-07T22:12:15.058Z,49.87
2023-01-07T22:14:42.642Z,49.86
2023-01-07T22:17:10.296Z,49.86
2023-01-07T22:19:37.905Z,50.02
2023-01-07T22:22:07.255Z,49.94
2023-01-07T22:24:36.422Z,49.94
2023-01-07T22:27:04.075Z,49.82
2023-01-07T22:29:32.727Z,49.83
2023-01-07T22:32:00.336Z,49.84
2023-01-07T22:34:27.895Z,49.84
2023-01-07T22:36:56.999Z,49.86
2023-01-07T22:39:25.573Z,49.89
2023-01-07T22:41:56.199Z,49.92
2023-01-07T22:44:25.054Z,50.00
2023-01-07T22:46:53.150Z,49.84
2023-01-07T22:49:20.753Z,49.86
2023-01-07T22:51:49.065Z,49.83
2023-01-07T22:54:16.692Z,49.73
2023-01-07T22:56:44.339Z,49.88
2023-01-07T22:59:13.370Z,49.82
2023-01-07T23:01:40.951Z,49.80
2023-01-07T23:04:08.997Z,49.83
2023-01-07T23:06:36.724Z,49.81
2023-01-07T23:09:04.425Z,49.76
2023-01-07T23:11:50.793Z,49.66
2023-01-07T23:14:20.887Z,49.70
2023-01-07T23:16:48.823Z,49.55
2023-01-07T23:19:16.828Z,49.58
2023-01-07T23:21:44.866Z,49.64
2023-01-07T23:24:12.736Z,49.65
2023-01-07T23:26:40.301Z,49.75
2023-01-07T23:29:07.965Z,49.67
2023-01-07T23:31:37.140Z,49.64
2023-01-07T23:34:07.943Z,49.48
2023-01-07T23:36:36.630Z,49.57
2023-01-07T23:39:04.473Z,49.57
2023-01-07T23:41:32.136Z,49.54
2023-01-07T23:43:59.739Z,49.62
2023-01-07T23:46:27.390Z,49.43
2023-01-07T23:48:56.325Z,49.44
2023-01-07T23:51:23.963Z,49.53
2023-01-07T23:53:52.359Z,49.64
2023-01-07T23:56:20.041Z,49.51
2023-01-07T23:58:47.991Z,49.55
